createdAt,value
2022-12-31T00:00:09.012Z,14.00
2022-12-31T00:01:08.865Z,14.20
2022-12-31T00:02:09.006Z,14.10
2022-12-31T00:03:09.012Z,13.80
2022-12-31T00:04:08.832Z,13.80
2022-12-31T00:05:08.814Z,13.90
2022-12-31T00:06:08.812Z,13.80
2022-12-31T00:07:08.786Z,14.40
2022-12-31T00:08:08.777Z,14.20
2022-12-31T00:09:08.779Z,14.20
2022-12-31T00:10:08.761Z,13.90
2022-12-31T00:11:08.930Z,14.10
2022-12-31T00:12:08.743Z,14.50
2022-12-31T00:13:08.745Z,14.40
2022-12-31T00:14:08.720Z,14.00
2022-12-31T00:15:08.702Z,14.00
2022-12-31T00:16:12.243Z,14.10
2022-12-31T00:17:08.754Z,14.10
2022-12-31T00:18:08.680Z,13.80
2022-12-31T00:19:08.666Z,13.90
2022-12-31T00:20:08.648Z,13.80
2022-12-31T00:21:08.650Z,14.30
2022-12-31T00:22:08.646Z,13.70
2022-12-31T00:23:08.619Z,13.90
2022-12-31T00:24:08.606Z,13.80
2022-12-31T00:25:08.593Z,13.70
2022-12-31T00:26:08.686Z,13.90
2022-12-31T00:27:08.614Z,14.00
2022-12-31T00:28:08.597Z,14.00
2022-12-31T00:29:08.570Z,14.10
2022-12-31T00:30:08.576Z,14.10
2022-12-31T00:31:08.682Z,13.70
2022-12-31T00:32:08.527Z,13.80
2022-12-31T00:33:08.519Z,13.70
2022-12-31T00:34:08.495Z,13.50
2022-12-31T00:35:08.490Z,13.70
2022-12-31T00:36:08.498Z,14.20
2022-12-31T00:37:08.473Z,14.10
2022-12-31T00:38:08.472Z,13.90
2022-12-31T00:39:08.504Z,13.90
2022-12-31T00:40:08.432Z,14.20
2022-12-31T00:41:08.442Z,14.00
2022-12-31T00:42:08.411Z,14.00
2022-12-31T00:43:08.419Z,14.00
2022-12-31T00:44:08.395Z,14.10
2022-12-31T00:45:08.386Z,14.10
2022-12-31T00:46:08.421Z,13.80
2022-12-31T00:47:08.352Z,13.70
2022-12-31T00:48:08.345Z,13.90
2022-12-31T00:49:08.334Z,14.10
2022-12-31T00:50:08.324Z,14.20
2022-12-31T00:51:08.336Z,14.30
2022-12-31T00:52:08.309Z,14.40
2022-12-31T00:53:08.290Z,13.70
2022-12-31T00:54:08.292Z,14.20
2022-12-31T00:55:08.316Z,13.90
2022-12-31T00:56:08.272Z,13.80
2022-12-31T00:57:08.249Z,13.70
2022-12-31T00:58:08.240Z,13.90
2022-12-31T00:59:08.439Z,13.80
2022-12-31T01:00:08.220Z,13.70
2022-12-31T01:01:08.380Z,13.80
2022-12-31T01:02:08.444Z,13.90
2022-12-31T01:03:08.248Z,13.90
2022-12-31T01:04:08.169Z,13.70
2022-12-31T01:05:08.200Z,13.90
2022-12-31T01:06:08.168Z,14.20
2022-12-31T01:07:08.135Z,14.10
2022-12-31T01:08:08.138Z,13.80
2022-12-31T01:09:08.113Z,14.30
2022-12-31T01:10:08.108Z,13.80
2022-12-31T01:11:08.115Z,13.80
2022-12-31T01:12:08.090Z,14.10
2022-12-31T01:13:08.070Z,13.90
2022-12-31T01:14:08.062Z,13.90
2022-12-31T01:15:08.069Z,13.90
2022-12-31T01:16:08.093Z,14.10
2022-12-31T01:17:08.035Z,13.80
2022-12-31T01:18:08.020Z,13.80
2022-12-31T01:19:08.012Z,13.80
2022-12-31T01:20:07.990Z,13.70
2022-12-31T01:21:07.997Z,13.60
2022-12-31T01:22:07.972Z,14.30
2022-12-31T01:23:07.980Z,14.60
2022-12-31T01:24:07.955Z,14.00
2022-12-31T01:25:07.943Z,13.90
2022-12-31T01:26:07.940Z,13.70
2022-12-31T01:27:07.920Z,13.70
2022-12-31T01:28:07.919Z,13.90
2022-12-31T01:29:07.911Z,13.90
2022-12-31T01:30:07.900Z,13.70
2022-12-31T01:31:07.968Z,13.50
2022-12-31T01:32:07.878Z,13.90
2022-12-31T01:33:07.858Z,13.90
2022-12-31T01:34:07.865Z,13.90
2022-12-31T01:35:07.839Z,13.40
2022-12-31T01:36:07.839Z,13.80
2022-12-31T01:37:07.816Z,15.20
2022-12-31T01:38:07.800Z,13.30
2022-12-31T01:39:07.789Z,13.30
2022-12-31T01:40:07.779Z,13.70
2022-12-31T01:41:07.829Z,13.30
2022-12-31T01:42:07.761Z,13.70
2022-12-31T01:43:07.845Z,13.50
2022-12-31T01:44:07.788Z,13.80
2022-12-31T01:45:07.722Z,13.80
2022-12-31T01:46:07.774Z,13.50
2022-12-31T01:47:07.722Z,13.60
2022-12-31T01:48:07.697Z,13.30
2022-12-31T01:49:07.693Z,13.10
2022-12-31T01:50:07.696Z,13.20
2022-12-31T01:51:07.689Z,14.50
2022-12-31T01:52:07.646Z,14.00
2022-12-31T01:53:07.634Z,13.20
2022-12-31T01:54:07.629Z,14.40
2022-12-31T01:55:07.644Z,13.20
2022-12-31T01:56:07.619Z,13.20
2022-12-31T01:57:07.590Z,13.20
2022-12-31T01:58:07.590Z,13.40
2022-12-31T01:59:07.573Z,13.30
2022-12-31T02:00:07.574Z,13.30
2022-12-31T02:01:07.583Z,13.30
2022-12-31T02:02:07.713Z,13.40
2022-12-31T02:03:07.646Z,13.20
2022-12-31T02:04:07.528Z,13.20
2022-12-31T02:05:07.507Z,13.00
2022-12-31T02:06:07.492Z,14.30
2022-12-31T02:07:07.503Z,13.80
2022-12-31T02:08:07.475Z,13.10
2022-12-31T02:09:07.463Z,13.30
2022-12-31T02:10:07.453Z,13.20
2022-12-31T02:11:07.452Z,13.40
2022-12-31T02:12:07.471Z,13.20
2022-12-31T02:13:07.423Z,13.10
2022-12-31T02:14:07.410Z,13.10
2022-12-31T02:15:07.404Z,13.70
2022-12-31T02:16:07.414Z,13.40
2022-12-31T02:17:07.384Z,13.00
2022-12-31T02:18:07.362Z,13.00
2022-12-31T02:19:07.370Z,13.00
2022-12-31T02:20:07.344Z,13.10
2022-12-31T02:21:07.339Z,14.20
2022-12-31T02:22:07.340Z,14.20
2022-12-31T02:23:07.311Z,13.00
2022-12-31T02:24:07.295Z,13.20
2022-12-31T02:25:07.285Z,13.70
2022-12-31T02:26:07.277Z,13.10
2022-12-31T02:27:07.287Z,13.00
2022-12-31T02:28:07.251Z,12.80
2022-12-31T02:29:15.021Z,12.90
2022-12-31T02:30:07.232Z,12.90
2022-12-31T02:31:07.262Z,13.40
2022-12-31T02:32:07.225Z,13.30
2022-12-31T02:33:07.196Z,13.00
2022-12-31T02:34:07.201Z,12.80
2022-12-31T02:35:07.208Z,13.10
2022-12-31T02:36:07.171Z,12.70
2022-12-31T02:37:07.166Z,13.30
2022-12-31T02:38:07.141Z,14.10
2022-12-31T02:39:07.130Z,12.70
2022-12-31T02:40:07.114Z,12.80
2022-12-31T02:41:07.107Z,13.00
2022-12-31T02:42:07.112Z,13.30
2022-12-31T02:43:07.159Z,13.30
2022-12-31T02:44:07.074Z,12.70
2022-12-31T02:45:07.063Z,12.70
2022-12-31T02:46:07.100Z,13.00
2022-12-31T02:47:07.057Z,13.00
2022-12-31T02:48:07.029Z,12.90
2022-12-31T02:49:07.027Z,13.00
2022-12-31T02:50:07.010Z,13.00
2022-12-31T02:51:07.019Z,14.80
2022-12-31T02:52:07.000Z,14.70
2022-12-31T02:53:07.028Z,13.00
2022-12-31T02:54:06.968Z,13.40
2022-12-31T02:55:06.952Z,13.40
2022-12-31T02:56:06.942Z,13.10
2022-12-31T02:57:06.949Z,13.20
2022-12-31T02:58:06.923Z,13.00
2022-12-31T02:59:06.913Z,12.80
2022-12-31T03:00:06.896Z,12.90
2022-12-31T03:01:07.020Z,13.10
2022-12-31T03:02:06.995Z,13.20
2022-12-31T03:03:06.872Z,12.90
2022-12-31T03:04:06.854Z,13.00
2022-12-31T03:05:06.851Z,12.90
2022-12-31T03:06:06.832Z,13.80
2022-12-31T03:07:06.863Z,15.40
2022-12-31T03:08:06.816Z,12.80
2022-12-31T03:09:06.798Z,13.00
2022-12-31T03:10:06.788Z,13.60
2022-12-31T03:11:06.777Z,13.10
2022-12-31T03:12:06.778Z,13.10
2022-12-31T03:13:06.757Z,13.20
2022-12-31T03:14:06.743Z,13.10
2022-12-31T03:15:06.820Z,13.00
2022-12-31T03:16:06.777Z,13.20
2022-12-31T03:17:06.723Z,12.90
2022-12-31T03:18:06.702Z,12.90
2022-12-31T03:19:06.691Z,13.00
2022-12-31T03:20:06.682Z,13.10
2022-12-31T03:21:06.684Z,15.20
2022-12-31T03:22:06.668Z,14.20
2022-12-31T03:23:06.662Z,13.00
2022-12-31T03:24:06.639Z,14.10
2022-12-31T03:25:06.627Z,13.10
2022-12-31T03:26:06.610Z,13.20
2022-12-31T03:27:06.622Z,13.00
2022-12-31T03:28:06.594Z,12.90
2022-12-31T03:29:06.581Z,13.10
2022-12-31T03:30:06.566Z,13.10
2022-12-31T03:31:06.633Z,13.20
2022-12-31T03:32:06.558Z,13.20
2022-12-31T03:33:06.538Z,13.00
2022-12-31T03:34:06.527Z,13.60
2022-12-31T03:35:06.514Z,14.20
2022-12-31T03:36:06.503Z,13.20
2022-12-31T03:37:06.517Z,13.30
2022-12-31T03:38:06.489Z,14.70
2022-12-31T03:39:06.496Z,12.90
2022-12-31T03:40:14.066Z,13.20
2022-12-31T03:41:06.455Z,13.50
2022-12-31T03:42:06.455Z,13.30
2022-12-31T03:43:06.437Z,13.10
2022-12-31T03:44:06.414Z,13.40
2022-12-31T03:45:06.471Z,13.80
2022-12-31T03:46:06.568Z,13.60
2022-12-31T03:47:06.405Z,13.10
2022-12-31T03:48:06.380Z,13.00
2022-12-31T03:49:06.362Z,13.00
2022-12-31T03:50:06.367Z,13.60
2022-12-31T03:51:06.346Z,14.40
2022-12-31T03:52:06.359Z,13.90
2022-12-31T03:53:06.327Z,13.20
2022-12-31T03:54:06.315Z,13.50
2022-12-31T03:55:06.318Z,13.80
2022-12-31T03:56:06.285Z,13.50
2022-12-31T03:57:06.282Z,13.20
2022-12-31T03:58:06.268Z,13.40
2022-12-31T03:59:06.258Z,13.10
2022-12-31T04:00:06.264Z,13.70
2022-12-31T04:01:06.354Z,13.70
2022-12-31T04:02:06.385Z,13.30
2022-12-31T04:03:06.330Z,13.60
2022-12-31T04:04:06.193Z,14.10
2022-12-31T04:05:06.201Z,13.50
2022-12-31T04:06:06.186Z,13.20
2022-12-31T04:07:06.172Z,13.20
2022-12-31T04:08:06.151Z,16.30
2022-12-31T04:09:06.143Z,14.20
2022-12-31T04:10:06.128Z,13.70
2022-12-31T04:11:06.140Z,13.40
2022-12-31T04:12:06.116Z,14.10
2022-12-31T04:13:06.120Z,14.10
2022-12-31T04:14:06.085Z,13.20
2022-12-31T04:15:06.082Z,13.00
2022-12-31T04:16:06.133Z,13.20
2022-12-31T04:17:06.060Z,13.10
2022-12-31T04:18:06.040Z,13.40
2022-12-31T04:19:06.036Z,13.10
2022-12-31T04:20:06.020Z,13.10
2022-12-31T04:21:06.009Z,13.40
2022-12-31T04:22:06.011Z,14.10
2022-12-31T04:23:05.987Z,13.50
2022-12-31T04:24:05.980Z,14.10
2022-12-31T04:25:05.974Z,13.10
2022-12-31T04:26:05.961Z,13.00
2022-12-31T04:27:08.004Z,13.20
2022-12-31T04:28:05.930Z,12.90
2022-12-31T04:29:05.933Z,12.70
2022-12-31T04:30:05.907Z,12.90
2022-12-31T04:31:05.916Z,13.20
2022-12-31T04:32:05.968Z,12.90
2022-12-31T04:33:05.883Z,12.70
2022-12-31T04:34:05.867Z,13.40
2022-12-31T04:35:05.856Z,12.90
2022-12-31T04:36:05.845Z,13.20
2022-12-31T04:37:05.845Z,13.80
2022-12-31T04:38:05.822Z,13.00
2022-12-31T04:39:05.813Z,12.70
2022-12-31T04:40:07.028Z,14.10
2022-12-31T04:41:05.791Z,14.00
2022-12-31T04:42:05.793Z,13.20
2022-12-31T04:43:05.784Z,13.10
2022-12-31T04:44:05.759Z,13.30
2022-12-31T04:45:05.756Z,13.10
2022-12-31T04:46:05.751Z,12.70
2022-12-31T04:47:05.737Z,12.80
2022-12-31T04:48:05.716Z,13.00
2022-12-31T04:49:05.702Z,13.00
2022-12-31T04:50:05.691Z,12.80
2022-12-31T04:51:05.685Z,12.60
2022-12-31T04:52:05.675Z,12.60
2022-12-31T04:53:05.660Z,13.10
2022-12-31T04:54:05.647Z,12.60
2022-12-31T04:55:05.637Z,12.80
2022-12-31T04:56:05.630Z,13.80
2022-12-31T04:57:05.635Z,13.40
2022-12-31T04:58:05.602Z,12.80
2022-12-31T04:59:05.608Z,12.90
2022-12-31T05:00:05.585Z,12.90
2022-12-31T05:01:05.716Z,13.10
2022-12-31T05:02:05.777Z,13.90
2022-12-31T05:03:05.602Z,13.00
2022-12-31T05:04:05.542Z,12.80
2022-12-31T05:05:05.532Z,12.80
2022-12-31T05:06:05.516Z,12.90
2022-12-31T05:07:05.541Z,12.80
2022-12-31T05:08:05.500Z,12.60
2022-12-31T05:09:05.484Z,12.50
2022-12-31T05:10:05.474Z,12.50
2022-12-31T05:11:05.461Z,12.60
2022-12-31T05:12:05.460Z,13.10
2022-12-31T05:13:05.474Z,12.50
2022-12-31T05:14:05.436Z,12.50
2022-12-31T05:15:05.435Z,13.10
2022-12-31T05:16:05.410Z,13.00
2022-12-31T05:17:05.444Z,12.40
2022-12-31T05:18:05.400Z,13.00
2022-12-31T05:19:05.375Z,12.40
2022-12-31T05:20:05.362Z,12.30
2022-12-31T05:21:05.353Z,12.30
2022-12-31T05:22:05.337Z,13.00
2022-12-31T05:23:05.343Z,12.60
2022-12-31T05:24:05.317Z,12.30
2022-12-31T05:25:05.309Z,12.70
2022-12-31T05:26:05.292Z,12.80
2022-12-31T05:27:05.290Z,12.70
2022-12-31T05:28:05.284Z,12.50
2022-12-31T05:29:05.279Z,12.70
2022-12-31T05:30:05.251Z,12.30
2022-12-31T05:31:05.318Z,12.10
2022-12-31T05:32:05.238Z,11.90
2022-12-31T05:33:05.227Z,12.30
2022-12-31T05:34:05.206Z,12.30
2022-12-31T05:35:05.199Z,12.10
2022-12-31T05:36:05.190Z,13.40
2022-12-31T05:37:05.174Z,12.20
2022-12-31T05:38:05.174Z,12.20
2022-12-31T05:39:05.188Z,12.60
2022-12-31T05:40:05.140Z,11.90
2022-12-31T05:41:05.128Z,11.80
2022-12-31T05:42:05.127Z,11.60
2022-12-31T05:43:05.135Z,11.60
2022-12-31T05:44:05.095Z,12.00
2022-12-31T05:45:05.090Z,12.70
2022-12-31T05:46:05.127Z,11.20
2022-12-31T05:47:05.102Z,11.50
2022-12-31T05:48:05.062Z,11.80
2022-12-31T05:49:05.043Z,11.70
2022-12-31T05:50:05.031Z,11.70
2022-12-31T05:51:05.019Z,11.20
2022-12-31T05:52:05.014Z,11.60
2022-12-31T05:53:05.008Z,11.90
2022-12-31T05:54:04.994Z,11.50
2022-12-31T05:55:04.976Z,11.30
2022-12-31T05:56:04.964Z,11.60
2022-12-31T05:57:04.961Z,11.50
2022-12-31T05:58:04.951Z,11.50
2022-12-31T05:59:04.931Z,11.50
2022-12-31T06:00:04.967Z,10.80
2022-12-31T06:01:04.943Z,11.00
2022-12-31T06:02:04.895Z,11.10
2022-12-31T06:03:05.067Z,11.40
2022-12-31T06:04:04.913Z,12.40
2022-12-31T06:05:04.869Z,11.80
2022-12-31T06:06:04.855Z,10.70
2022-12-31T06:07:04.843Z,11.20
2022-12-31T06:08:04.840Z,12.80
2022-12-31T06:09:04.819Z,12.00
2022-12-31T06:10:04.811Z,10.90
2022-12-31T06:11:04.814Z,10.50
2022-12-31T06:12:04.787Z,10.40
2022-12-31T06:13:04.786Z,11.40
2022-12-31T06:14:04.768Z,12.40
2022-12-31T06:15:04.756Z,10.70
2022-12-31T06:16:04.845Z,10.30
2022-12-31T06:17:04.732Z,11.50
2022-12-31T06:18:04.748Z,11.70
2022-12-31T06:19:04.795Z,10.90
2022-12-31T06:20:10.521Z,10.70
2022-12-31T06:21:05.687Z,10.50
2022-12-31T06:22:04.811Z,10.80
2022-12-31T06:23:04.685Z,11.50
2022-12-31T06:24:04.663Z,10.60
2022-12-31T06:25:04.645Z,10.60
2022-12-31T06:26:04.631Z,11.30
2022-12-31T06:27:04.620Z,10.80
2022-12-31T06:28:04.625Z,10.10
2022-12-31T06:29:04.599Z,11.80
2022-12-31T06:30:04.711Z,12.70
2022-12-31T06:31:04.686Z,10.50
2022-12-31T06:32:04.564Z,10.20
2022-12-31T06:33:04.564Z,10.10
2022-12-31T06:34:04.545Z,11.40
2022-12-31T06:35:04.552Z,13.80
2022-12-31T06:36:04.528Z,10.40
2022-12-31T06:37:04.511Z,10.10
2022-12-31T06:38:04.519Z,10.80
2022-12-31T06:39:04.489Z,11.90
2022-12-31T06:40:04.575Z,10.50
2022-12-31T06:41:04.470Z,10.00
2022-12-31T06:42:04.454Z,11.50
2022-12-31T06:43:04.460Z,11.30
2022-12-31T06:44:04.445Z,10.30
2022-12-31T06:45:04.471Z,11.20
2022-12-31T06:46:04.505Z,11.30
2022-12-31T06:47:04.460Z,10.40
2022-12-31T06:48:04.398Z,10.80
2022-12-31T06:49:04.379Z,11.90
2022-12-31T06:50:04.387Z,10.90
2022-12-31T06:51:04.377Z,10.40
2022-12-31T06:52:04.347Z,11.60
2022-12-31T06:53:04.348Z,11.10
2022-12-31T06:54:04.323Z,11.40
2022-12-31T06:55:04.317Z,12.00
2022-12-31T06:56:04.301Z,10.90
2022-12-31T06:57:04.295Z,11.40
2022-12-31T06:58:04.298Z,10.80
2022-12-31T06:59:04.296Z,10.40
2022-12-31T07:00:04.275Z,11.40
2022-12-31T07:01:04.289Z,11.10
2022-12-31T07:02:04.396Z,10.30
2022-12-31T07:03:04.297Z,10.90
2022-12-31T07:04:04.218Z,10.70
2022-12-31T07:05:04.217Z,10.20
2022-12-31T07:06:04.203Z,10.10
2022-12-31T07:07:04.251Z,11.30
2022-12-31T07:08:04.192Z,10.50
2022-12-31T07:09:04.159Z,10.20
2022-12-31T07:10:04.146Z,10.80
2022-12-31T07:11:04.136Z,10.40
2022-12-31T07:12:04.136Z,10.50
2022-12-31T07:13:04.140Z,10.20
2022-12-31T07:14:04.115Z,9.90
2022-12-31T07:15:04.094Z,10.50
2022-12-31T07:16:04.125Z,11.40
2022-12-31T07:17:04.078Z,12.60
2022-12-31T07:18:04.079Z,11.30
2022-12-31T07:19:04.054Z,9.90
2022-12-31T07:20:04.078Z,11.20
2022-12-31T07:21:04.029Z,12.10
2022-12-31T07:22:04.018Z,10.10
2022-12-31T07:23:04.043Z,10.80
2022-12-31T07:24:03.996Z,10.10
2022-12-31T07:25:03.983Z,11.30
2022-12-31T07:26:03.976Z,12.80
2022-12-31T07:27:03.965Z,11.80
2022-12-31T07:28:03.965Z,11.80
2022-12-31T07:29:03.948Z,10.00
2022-12-31T07:30:03.936Z,11.00
2022-12-31T07:31:03.993Z,11.70
2022-12-31T07:32:03.910Z,11.00
2022-12-31T07:33:03.909Z,11.90
2022-12-31T07:34:03.889Z,10.20
2022-12-31T07:35:03.881Z,11.30
2022-12-31T07:36:03.876Z,11.20
2022-12-31T07:37:03.870Z,10.30
2022-12-31T07:38:03.863Z,11.20
2022-12-31T07:39:03.917Z,11.20
2022-12-31T07:40:03.834Z,10.80
2022-12-31T07:41:09.405Z,10.50
2022-12-31T07:42:04.803Z,11.10
2022-12-31T07:43:03.808Z,11.70
2022-12-31T07:44:03.802Z,10.40
2022-12-31T07:45:03.772Z,11.20
2022-12-31T07:46:03.763Z,11.60
2022-12-31T07:47:03.748Z,11.00
2022-12-31T07:48:03.752Z,11.10
2022-12-31T07:49:03.731Z,10.80
2022-12-31T07:50:03.715Z,11.40
2022-12-31T07:51:03.707Z,11.00
2022-12-31T07:52:03.742Z,10.70
2022-12-31T07:53:03.695Z,12.30
2022-12-31T07:54:07.488Z,10.50
2022-12-31T07:55:04.687Z,10.30
2022-12-31T07:56:03.648Z,11.20
2022-12-31T07:57:03.733Z,11.50
2022-12-31T07:58:03.670Z,11.20
2022-12-31T07:59:03.631Z,10.30
2022-12-31T08:00:03.605Z,11.80
2022-12-31T08:01:03.734Z,10.90
2022-12-31T08:02:03.885Z,10.20
2022-12-31T08:03:03.659Z,11.00
2022-12-31T08:04:03.563Z,9.70
2022-12-31T08:05:03.552Z,11.00
2022-12-31T08:06:03.548Z,11.30
2022-12-31T08:07:03.544Z,10.90
2022-12-31T08:08:03.529Z,10.50
2022-12-31T08:09:03.502Z,10.80
2022-12-31T08:10:03.504Z,11.70
2022-12-31T08:11:03.496Z,11.40
2022-12-31T08:12:03.470Z,11.50
2022-12-31T08:13:03.468Z,10.70
2022-12-31T08:14:03.456Z,11.70
2022-12-31T08:15:03.450Z,12.00
2022-12-31T08:16:03.516Z,10.30
2022-12-31T08:17:03.415Z,11.10
2022-12-31T08:18:03.425Z,11.30
2022-12-31T08:19:03.399Z,11.20
2022-12-31T08:20:03.389Z,11.40
2022-12-31T08:21:03.379Z,10.70
2022-12-31T08:22:03.366Z,10.50
2022-12-31T08:23:03.362Z,11.10
2022-12-31T08:24:03.340Z,10.60
2022-12-31T08:25:03.341Z,12.00
2022-12-31T08:26:03.320Z,10.20
2022-12-31T08:27:03.334Z,10.70
2022-12-31T08:28:03.311Z,11.30
2022-12-31T08:29:03.287Z,10.70
2022-12-31T08:30:03.278Z,11.10
2022-12-31T08:31:03.273Z,10.70
2022-12-31T08:32:03.327Z,11.00
2022-12-31T08:33:03.256Z,10.60
2022-12-31T08:34:06.017Z,10.90
2022-12-31T08:35:03.216Z,11.20
2022-12-31T08:36:03.205Z,11.00
2022-12-31T08:37:03.193Z,10.40
2022-12-31T08:38:03.202Z,11.20
2022-12-31T08:39:03.184Z,11.40
2022-12-31T08:40:03.174Z,10.90
2022-12-31T08:41:03.149Z,10.70
2022-12-31T08:42:03.141Z,10.80
2022-12-31T08:43:03.152Z,11.00
2022-12-31T08:44:03.131Z,11.90
2022-12-31T08:45:03.118Z,11.30
2022-12-31T08:46:03.115Z,10.60
2022-12-31T08:47:03.082Z,10.60
2022-12-31T08:48:03.077Z,10.60
2022-12-31T08:49:03.071Z,11.30
2022-12-31T08:50:03.052Z,11.10
2022-12-31T08:51:03.039Z,10.10
2022-12-31T08:52:03.030Z,10.80
2022-12-31T08:53:03.065Z,11.60
2022-12-31T08:54:03.017Z,11.20
2022-12-31T08:55:02.993Z,10.50
2022-12-31T08:56:02.985Z,11.50
2022-12-31T08:57:02.970Z,12.80
2022-12-31T08:58:02.966Z,11.00
2022-12-31T08:59:02.987Z,10.70
2022-12-31T09:00:02.947Z,12.10
2022-12-31T09:01:02.990Z,11.10
2022-12-31T09:02:03.056Z,11.20
2022-12-31T09:03:02.903Z,10.70
2022-12-31T09:04:02.949Z,11.30
2022-12-31T09:05:02.886Z,11.70
2022-12-31T09:06:02.878Z,10.70
2022-12-31T09:07:02.874Z,12.60
2022-12-31T09:08:02.852Z,10.80
2022-12-31T09:09:02.855Z,11.10
2022-12-31T09:10:02.844Z,12.00
2022-12-31T09:11:02.818Z,11.00
2022-12-31T09:12:02.810Z,11.50
2022-12-31T09:13:02.803Z,11.50
2022-12-31T09:14:02.822Z,11.20
2022-12-31T09:15:02.794Z,12.70
2022-12-31T09:16:02.775Z,11.30
2022-12-31T09:17:02.752Z,11.70
2022-12-31T09:18:02.744Z,11.80
2022-12-31T09:19:02.739Z,11.00
2022-12-31T09:20:02.721Z,11.70
2022-12-31T09:21:02.709Z,12.70
2022-12-31T09:22:02.703Z,10.90
2022-12-31T09:23:02.685Z,11.60
2022-12-31T09:24:07.600Z,10.50
2022-12-31T09:25:03.662Z,11.40
2022-12-31T09:26:02.656Z,12.70
2022-12-31T09:27:02.652Z,10.90
2022-12-31T09:28:02.633Z,12.00
2022-12-31T09:29:02.647Z,11.90
2022-12-31T09:30:02.606Z,11.50
2022-12-31T09:31:02.619Z,11.50
2022-12-31T09:32:02.687Z,11.10
2022-12-31T09:33:02.577Z,10.80
2022-12-31T09:34:02.610Z,11.80
2022-12-31T09:35:02.578Z,13.60
2022-12-31T09:36:02.576Z,11.10
2022-12-31T09:37:02.533Z,11.30
2022-12-31T09:38:06.543Z,12.10
2022-12-31T09:39:03.516Z,11.80
2022-12-31T09:40:02.498Z,12.60
2022-12-31T09:41:02.486Z,11.50
2022-12-31T09:42:02.477Z,11.40
2022-12-31T09:43:10.194Z,12.00
2022-12-31T09:44:02.475Z,11.30
2022-12-31T09:45:02.449Z,12.30
2022-12-31T09:46:02.551Z,12.20
2022-12-31T09:47:02.447Z,11.90
2022-12-31T09:48:02.427Z,11.50
2022-12-31T09:49:02.413Z,11.50
2022-12-31T09:50:02.399Z,13.50
2022-12-31T09:51:02.388Z,11.60
2022-12-31T09:52:02.379Z,11.40
2022-12-31T09:53:02.362Z,11.40
2022-12-31T09:54:02.369Z,11.70
2022-12-31T09:55:02.352Z,12.20
2022-12-31T09:56:02.332Z,11.80
2022-12-31T09:57:02.317Z,11.50
2022-12-31T09:58:02.322Z,11.60
2022-12-31T09:59:02.307Z,11.90
2022-12-31T10:00:02.290Z,13.10
2022-12-31T10:01:02.416Z,11.90
2022-12-31T10:02:02.616Z,11.90
2022-12-31T10:03:02.301Z,11.90
2022-12-31T10:04:02.251Z,11.70
2022-12-31T10:05:02.226Z,12.50
2022-12-31T10:06:02.234Z,11.80
2022-12-31T10:07:02.209Z,11.70
2022-12-31T10:08:02.198Z,12.90
2022-12-31T10:09:02.202Z,11.70
2022-12-31T10:10:02.180Z,11.60
2022-12-31T10:11:02.160Z,11.80
2022-12-31T10:12:02.164Z,12.00
2022-12-31T10:13:02.148Z,11.90
2022-12-31T10:14:02.143Z,12.60
2022-12-31T10:15:02.127Z,11.90
2022-12-31T10:16:02.117Z,11.60
2022-12-31T10:17:02.140Z,12.40
2022-12-31T10:18:02.092Z,12.50
2022-12-31T10:19:02.119Z,11.90
2022-12-31T10:20:02.068Z,12.10
2022-12-31T10:21:02.089Z,11.80
2022-12-31T10:22:02.048Z,12.10
2022-12-31T10:23:02.037Z,12.40
2022-12-31T10:24:02.048Z,12.40
2022-12-31T10:25:02.015Z,12.00
2022-12-31T10:26:01.998Z,11.70
2022-12-31T10:27:01.988Z,12.70
2022-12-31T10:28:01.979Z,11.90
2022-12-31T10:29:01.975Z,11.90
2022-12-31T10:30:01.950Z,11.80
2022-12-31T10:31:02.064Z,12.00
2022-12-31T10:32:01.932Z,12.20
2022-12-31T10:33:01.919Z,12.50
2022-12-31T10:34:01.925Z,12.50
2022-12-31T10:35:01.976Z,11.60
2022-12-31T10:36:01.896Z,11.30
2022-12-31T10:37:01.877Z,11.70
2022-12-31T10:38:01.867Z,12.30
2022-12-31T10:39:05.000Z,12.10
2022-12-31T10:40:02.849Z,12.20
2022-12-31T10:41:01.832Z,12.40
2022-12-31T10:42:01.833Z,11.90
2022-12-31T10:43:01.811Z,11.90
2022-12-31T10:44:01.811Z,12.70
2022-12-31T10:45:01.788Z,12.00
2022-12-31T10:46:01.830Z,12.10
2022-12-31T10:47:01.788Z,13.20
2022-12-31T10:48:01.770Z,12.10
2022-12-31T10:49:01.786Z,11.90
2022-12-31T10:50:01.736Z,11.80
2022-12-31T10:51:01.754Z,12.60
2022-12-31T10:52:01.717Z,11.80
2022-12-31T10:53:01.699Z,11.90
2022-12-31T10:54:01.703Z,12.20
2022-12-31T10:55:01.687Z,12.30
2022-12-31T10:56:01.698Z,12.00
2022-12-31T10:57:01.659Z,12.40
2022-12-31T10:58:04.271Z,12.30
2022-12-31T10:59:01.660Z,11.90
2022-12-31T11:00:01.687Z,12.00
2022-12-31T11:01:01.816Z,11.90
2022-12-31T11:02:01.706Z,12.90
2022-12-31T11:03:01.660Z,13.00
2022-12-31T11:04:01.639Z,11.60
2022-12-31T11:05:01.572Z,11.90
2022-12-31T11:06:01.573Z,11.90
2022-12-31T11:07:01.574Z,12.30
2022-12-31T11:08:01.543Z,11.20
2022-12-31T11:09:01.545Z,12.80
2022-12-31T11:10:01.523Z,11.60
2022-12-31T11:11:01.555Z,11.80
2022-12-31T11:12:01.500Z,11.70
2022-12-31T11:13:01.533Z,12.10
2022-12-31T11:14:01.502Z,12.30
2022-12-31T11:15:01.477Z,11.50
2022-12-31T11:16:01.530Z,11.70
2022-12-31T11:17:01.440Z,11.80
2022-12-31T11:18:01.428Z,12.10
2022-12-31T11:19:01.434Z,11.80
2022-12-31T11:20:01.473Z,12.60
2022-12-31T11:21:01.397Z,12.40
2022-12-31T11:22:01.391Z,12.80
2022-12-31T11:23:01.390Z,11.70
2022-12-31T11:24:01.376Z,12.80
2022-12-31T11:25:01.352Z,14.00
2022-12-31T11:26:01.351Z,11.50
2022-12-31T11:27:01.331Z,11.80
2022-12-31T11:28:01.334Z,12.00
2022-12-31T11:29:01.327Z,12.10
2022-12-31T11:30:01.313Z,12.50
2022-12-31T11:31:01.361Z,12.40
2022-12-31T11:32:01.290Z,12.60
2022-12-31T11:33:01.348Z,11.50
2022-12-31T11:34:01.277Z,13.60
2022-12-31T11:35:01.243Z,13.60
2022-12-31T11:36:01.248Z,11.90
2022-12-31T11:37:01.223Z,12.20
2022-12-31T11:38:01.208Z,12.50
2022-12-31T11:39:01.359Z,12.00
2022-12-31T11:40:01.186Z,12.70
2022-12-31T11:41:01.185Z,12.40
2022-12-31T11:42:01.177Z,12.30
2022-12-31T11:43:01.153Z,12.00
2022-12-31T11:44:01.161Z,13.30
2022-12-31T11:45:01.143Z,13.00
2022-12-31T11:46:01.149Z,12.00
2022-12-31T11:47:01.112Z,12.40
2022-12-31T11:49:02.104Z,12.80
2022-12-31T11:50:01.078Z,11.80
2022-12-31T11:51:01.069Z,11.90
2022-12-31T11:52:01.060Z,11.80
2022-12-31T11:53:01.048Z,11.90
2022-12-31T11:54:01.037Z,12.10
2022-12-31T11:55:01.067Z,12.10
2022-12-31T11:56:01.011Z,11.50
2022-12-31T11:57:01.005Z,12.20
2022-12-31T11:58:01.003Z,12.00
2022-12-31T11:59:06.162Z,11.90
2022-12-31T12:00:02.051Z,12.00
2022-12-31T12:01:01.010Z,11.70
2022-12-31T12:02:00.959Z,13.10
2022-12-31T12:03:01.010Z,12.50
2022-12-31T12:04:00.970Z,11.60
2022-12-31T12:05:08.260Z,12.30
2022-12-31T12:06:01.903Z,12.80
2022-12-31T12:07:00.904Z,12.70
2022-12-31T12:08:00.882Z,12.10
2022-12-31T12:09:00.876Z,12.30
2022-12-31T12:10:00.872Z,12.70
2022-12-31T12:11:00.871Z,12.80
2022-12-31T12:12:00.906Z,12.30
2022-12-31T12:13:00.842Z,12.40
2022-12-31T12:14:00.823Z,12.80
2022-12-31T12:15:00.876Z,12.30
2022-12-31T12:16:00.874Z,11.90
2022-12-31T12:17:04.644Z,12.40
2022-12-31T12:18:00.769Z,11.90
2022-12-31T12:19:00.768Z,12.20
2022-12-31T12:20:00.776Z,12.20
2022-12-31T12:21:00.741Z,13.00
2022-12-31T12:22:00.726Z,12.50
2022-12-31T12:23:00.727Z,12.90
2022-12-31T12:24:00.711Z,12.80
2022-12-31T12:25:00.707Z,12.80
2022-12-31T12:26:00.693Z,12.50
2022-12-31T12:27:00.689Z,12.40
2022-12-31T12:28:00.660Z,12.00
2022-12-31T12:29:00.653Z,12.70
2022-12-31T12:30:00.671Z,12.30
2022-12-31T12:31:00.755Z,12.80
2022-12-31T12:32:00.627Z,12.30
2022-12-31T12:33:00.640Z,12.90
2022-12-31T12:34:00.596Z,13.00
2022-12-31T12:35:00.619Z,13.10
2022-12-31T12:36:00.575Z,12.70
2022-12-31T12:37:00.583Z,13.10
2022-12-31T12:38:00.583Z,13.50
2022-12-31T12:39:00.544Z,12.90
2022-12-31T12:40:00.540Z,13.10
2022-12-31T12:41:00.541Z,13.40
2022-12-31T12:42:00.523Z,13.10
2022-12-31T12:43:00.526Z,13.60
2022-12-31T12:44:00.485Z,12.80
2022-12-31T12:45:00.502Z,12.40
2022-12-31T12:46:00.461Z,13.50
2022-12-31T12:47:00.480Z,12.80
2022-12-31T12:48:00.450Z,13.40
2022-12-31T12:49:00.431Z,12.20
2022-12-31T12:50:00.436Z,13.00
2022-12-31T12:51:00.432Z,13.10
2022-12-31T12:52:00.408Z,12.10
2022-12-31T12:53:00.392Z,12.60